Time;durP1;ratioP1;P1;durP2;ratioP2;P2;SDS_P1;SDS_P2;PMS_P1;PMS_P2;Temp;Humidity;BMP_temperature;BMP_pressure;BME280_temperature;BME280_humidity;BME280_pressure;Samples;Min_cycle;Max_cycle;Signal;HPM_P1;HPM_P2
2022/04/02 00:00:48;;;;;;;9.77;6.38;;;;;;;0.37;97.11;99596.75;5036296;28;20490;-73
2022/04/02 00:03:13;;;;;;;7.65;6.63;;;;;;;0.28;96.87;99600.00;5034485;28;20120;-73
2022/04/02 00:05:39;;;;;;;8.88;6.63;;;;;;;0.29;96.70;99595.66;5035966;28;20029;-73
2022/04/02 00:08:05;;;;;;;8.55;6.28;;;;;;;0.31;96.45;99598.97;5034994;28;20044;-72
2022/04/02 00:10:30;;;;;;;6.95;5.65;;;;;;;0.33;96.61;99600.50;5035469;28;20029;-73
2022/04/02 00:12:55;;;;;;;9.93;6.18;;;;;;;0.33;96.36;99597.09;5035672;28;20033;-72
2022/04/02 00:15:21;;;;;;;8.05;5.70;;;;;;;0.37;96.42;99601.97;5035244;28;20556;-73
2022/04/02 00:17:46;;;;;;;6.50;5.45;;;;;;;0.34;95.90;99598.75;5035445;28;20034;-72
2022/04/02 00:20:12;;;;;;;8.80;6.32;;;;;;;0.35;96.28;99603.84;5035006;28;20338;-72
2022/04/02 00:22:37;;;;;;;9.02;6.00;;;;;;;0.36;96.22;99602.09;5035473;28;20112;-72
2022/04/02 00:25:03;;;;;;;8.77;6.60;;;;;;;0.29;96.31;99596.50;5035562;28;20120;-73
2022/04/02 00:27:28;;;;;;;7.35;6.45;;;;;;;0.31;96.11;99598.97;5035132;28;20497;-73
2022/04/02 00:29:54;;;;;;;7.75;6.20;;;;;;;0.31;96.20;99601.56;5054466;28;20040;-73
2022/04/02 00:32:19;;;;;;;9.98;6.07;;;;;;;0.37;95.99;99596.75;5053632;28;20029;-73
2022/04/02 00:34:44;;;;;;;8.00;6.55;;;;;;;0.41;95.77;99595.59;5054009;28;20067;-72
2022/04/02 00:37:10;;;;;;;7.60;5.80;;;;;;;0.42;95.60;99602.47;5055606;28;20322;-73
2022/04/02 00:39:35;;;;;;;7.88;6.03;;;;;;;0.44;95.64;99601.53;5053887;28;20033;-73
2022/04/02 00:42:00;;;;;;;7.18;5.55;;;;;;;0.48;95.52;99602.94;5054898;28;20068;-73
2022/04/02 00:44:26;;;;;;;8.10;6.10;;;;;;;0.46;95.43;99597.88;5054904;28;20445;-73
2022/04/02 00:46:52;;;;;;;6.95;5.57;;;;;;;0.52;95.10;99596.59;5054986;28;20033;-72
2022/04/02 00:49:18;;;;;;;7.70;5.38;;;;;;;0.55;95.10;99593.75;5035070;28;20041;-73
2022/04/02 00:51:45;;;;;;;7.35;6.00;;;;;;;0.56;94.86;99601.47;5030914;28;20581;-73
2022/04/02 00:54:16;;;;;;;7.03;5.55;;;;;;;0.54;94.77;99590.34;5031021;28;20241;-74
2022/04/02 00:56:42;;;;;;;6.97;5.30;;;;;;;0.61;94.59;99594.16;5030643;28;20037;-74
2022/04/02 00:59:12;;;;;;;6.75;5.22;;;;;;;0.63;94.42;99600.09;5031928;28;20045;-75
2022/04/02 01:01:37;;;;;;;7.60;6.03;;;;;;;0.59;94.36;99603.00;5031709;28;20037;-74
2022/04/02 01:04:04;;;;;;;7.40;5.55;;;;;;;0.55;93.74;99596.38;5031586;28;20176;-74
2022/04/02 01:06:31;;;;;;;7.82;6.10;;;;;;;0.55;93.74;99586.81;5031572;28;20053;-74
2022/04/02 01:08:57;;;;;;;6.72;5.45;;;;;;;0.54;93.74;99589.53;5031755;28;20120;-74
2022/04/02 01:11:23;;;;;;;7.13;5.53;;;;;;;0.60;93.41;99595.13;5030133;28;20195;-74
2022/04/02 01:13:49;;;;;;;7.22;5.32;;;;;;;0.62;93.85;99589.78;5030521;28;20538;-73
2022/04/02 01:16:14;;;;;;;7.93;5.35;;;;;;;0.66;93.70;99593.81;5031291;28;20425;-75
2022/04/02 01:18:40;;;;;;;5.95;4.65;;;;;;;0.68;93.61;99588.53;5031482;28;20436;-74
2022/04/02 01:21:05;;;;;;;6.70;5.55;;;;;;;0.62;93.62;99590.63;5030484;28;20041;-74
2022/04/02 01:23:31;;;;;;;8.38;5.50;;;;;;;0.66;93.52;99593.00;5046329;28;20029;-74
2022/04/02 01:26:01;;;;;;;6.63;4.63;;;;;;;0.68;93.69;99591.13;5051400;28;20457;-73
2022/04/02 01:28:33;;;;;;;6.80;5.50;;;;;;;0.55;93.63;99591.16;5042763;28;20053;-74
2022/04/02 01:31:07;;;;;;;6.97;4.88;;;;;;;0.55;93.41;99597.22;5033324;28;20044;-74
2022/04/02 01:33:44;;;;;;;7.47;4.70;;;;;;;0.53;93.70;99598.28;5034358;28;20040;-75
2022/04/02 01:36:09;;;;;;;5.57;4.82;;;;;;;0.51;93.52;99606.19;5030579;28;20144;-75
2022/04/02 01:38:35;;;;;;;5.20;4.25;;;;;;;0.50;93.91;99606.28;5031006;28;20034;-74
2022/04/02 01:41:00;;;;;;;5.57;4.25;;;;;;;0.45;94.14;99606.59;5031428;28;20060;-74
2022/04/02 01:43:25;;;;;;;5.15;3.97;;;;;;;0.43;94.51;99616.31;5031489;28;20113;-74
2022/04/02 01:45:55;;;;;;;5.18;4.50;;;;;;;0.44;94.50;99615.34;5030948;28;20120;-74
2022/04/02 01:48:21;;;;;;;4.47;3.67;;;;;;;0.47;94.49;99616.91;5039294;28;20025;-74
2022/04/02 01:50:46;;;;;;;4.68;3.90;;;;;;;0.41;94.86;99616.41;5050817;28;20033;-74
2022/04/02 01:53:11;;;;;;;4.53;3.67;;;;;;;0.45;94.62;99616.19;5035229;28;20060;-74
2022/04/02 01:55:37;;;;;;;5.20;4.07;;;;;;;0.45;95.16;99621.38;5030777;28;20041;-74
2022/04/02 01:58:02;;;;;;;4.05;3.65;;;;;;;0.38;95.07;99618.38;5030937;28;20520;-74
2022/04/02 02:00:28;;;;;;;5.43;3.80;;;;;;;0.39;95.06;99623.50;5032506;28;20116;-73
2022/04/02 02:02:53;;;;;;;4.45;3.70;;;;;;;0.42;94.97;99622.44;5050833;28;20063;-75
2022/04/02 02:05:18;;;;;;;5.15;3.88;;;;;;;0.40;95.22;99629.50;5049988;28;20021;-74
2022/04/02 02:07:49;;;;;;;4.68;3.80;;;;;;;0.40;95.34;99635.53;5050283;28;20033;-74
2022/04/02 02:10:14;;;;;;;4.85;3.72;;;;;;;0.37;95.32;99629.75;5049687;28;20385;-74
2022/04/02 02:12:40;;;;;;;5.22;4.10;;;;;;;0.37;95.28;99634.94;5050098;28;20025;-74
2022/04/02 02:15:06;;;;;;;4.70;3.92;;;;;;;0.36;95.59;99630.69;5050833;28;20028;-74
2022/04/02 02:17:31;;;;;;;4.57;4.00;;;;;;;0.39;95.32;99633.06;5051208;28;20029;-74
2022/04/02 02:19:56;;;;;;;4.97;3.60;;;;;;;0.30;95.45;99629.34;5051601;28;20031;-74
2022/04/02 02:22:22;;;;;;;4.32;3.40;;;;;;;0.35;95.25;99636.81;5051517;28;20089;-74
2022/04/02 02:24:47;;;;;;;5.50;4.45;;;;;;;0.30;95.49;99636.31;5052353;28;20032;-74
2022/04/02 02:27:12;;;;;;;4.53;4.00;;;;;;;0.31;95.63;99640.56;5050219;28;20066;-74
2022/04/02 02:29:38;;;;;;;6.53;4.22;;;;;;;0.29;95.76;99632.06;5033193;28;20059;-74
2022/04/02 02:32:04;;;;;;;4.68;3.80;;;;;;;0.32;95.78;99635.25;5030287;28;20032;-74
2022/04/02 02:37:13;;;;;;;5.70;4.18;;;;;;;0.27;95.75;99636.53;5030759;28;20083;-75
2022/04/02 02:39:39;;;;;;;5.32;3.95;;;;;;;0.24;95.79;99636.72;5030161;28;20334;-74
2022/04/02 02:42:04;;;;;;;5.35;3.67;;;;;;;0.24;95.74;99639.34;5030418;28;20534;-73
2022/04/02 02:44:30;;;;;;;5.50;4.00;;;;;;;0.24;95.73;99642.78;5029181;28;20021;-74
2022/04/02 02:46:55;;;;;;;5.90;3.97;;;;;;;0.20;95.50;99639.56;5028929;28;20029;-74
2022/04/02 02:49:20;;;;;;;5.63;4.00;;;;;;;0.19;95.72;99639.66;5025213;28;20609;-74
2022/04/02 02:51:46;;;;;;;4.95;4.00;;;;;;;0.12;95.86;99644.47;5033188;28;20018;-76
2022/04/02 02:54:11;;;;;;;5.50;4.00;;;;;;;0.14;95.89;99652.16;5030879;28;20033;-74
2022/04/02 02:56:36;;;;;;;4.93;4.32;;;;;;;0.12;95.75;99646.22;5045033;28;20478;-74
2022/04/02 02:59:02;;;;;;;5.63;3.92;;;;;;;0.12;95.76;99649.66;5033915;28;20037;-75
2022/04/02 03:01:28;;;;;;;5.05;4.15;;;;;;;0.14;96.07;99655.59;5024790;28;20037;-72
2022/04/02 03:03:53;;;;;;;5.35;4.03;;;;;;;0.12;95.95;99652.28;5023348;28;20095;-74
2022/04/02 03:06:18;;;;;;;6.32;3.92;;;;;;;0.12;95.80;99651.41;5023584;28;20049;-74
2022/04/02 03:08:44;;;;;;;6.40;3.95;;;;;;;0.14;95.84;99654.75;5044612;28;20033;-74
2022/04/02 03:11:09;;;;;;;6.40;3.90;;;;;;;0.15;96.11;99648.63;5040920;28;20494;-74
2022/04/02 03:13:38;;;;;;;5.07;3.88;;;;;;;0.15;95.78;99657.25;5048900;28;20098;-74
2022/04/02 03:16:04;;;;;;;4.20;3.00;;;;;;;0.17;95.77;99673.56;5048286;28;20044;-74
2022/04/02 03:18:29;;;;;;;5.55;3.25;;;;;;;0.15;95.65;99669.41;5039963;28;20457;-74
2022/04/02 03:20:54;;;;;;;5.22;3.78;;;;;;;0.13;95.77;99674.72;5029411;28;20091;-75
2022/04/02 03:23:20;;;;;;;4.43;3.50;;;;;;;0.09;95.78;99681.06;5029814;28;20295;-74
2022/04/02 03:25:45;;;;;;;4.18;3.28;;;;;;;0.09;95.72;99678.44;5049400;28;20382;-75
2022/04/02 03:28:12;;;;;;;5.40;3.00;;;;;;;0.10;95.86;99680.13;5031622;28;20029;-74
2022/04/02 03:30:38;;;;;;;4.68;3.30;;;;;;;0.04;96.38;99677.94;5029449;28;20042;-74
2022/04/02 03:33:04;;;;;;;3.83;3.08;;;;;;;0.08;96.41;99681.19;5029011;28;20046;-74
2022/04/02 03:35:29;;;;;;;3.88;3.33;;;;;;;0.09;96.16;99685.44;5029136;28;20033;-74
2022/04/02 03:37:55;;;;;;;5.75;4.07;;;;;;;0.05;96.43;99679.63;5027752;28;20415;-74
2022/04/02 03:40:25;;;;;;;5.57;4.00;;;;;;;0.05;96.35;99684.81;5028832;28;21592;-74
2022/04/02 03:42:50;;;;;;;5.43;4.25;;;;;;;0.03;96.42;99678.06;5029137;28;20037;-74
2022/04/02 03:45:18;;;;;;;4.88;3.80;;;;;;;0.04;96.51;99677.94;5046110;28;20025;-74
2022/04/02 03:47:44;;;;;;;5.00;3.42;;;;;;;0.05;96.49;99677.03;5048999;28;20452;-74
2022/04/02 03:50:10;;;;;;;6.13;3.72;;;;;;;0.01;96.43;99682.53;5048519;28;20044;-74
2022/04/02 03:52:36;;;;;;;5.15;4.15;;;;;;;-0.04;96.60;99688.06;5047631;28;20033;-74
2022/04/02 03:55:02;;;;;;;4.88;3.53;;;;;;;-0.04;96.82;99682.84;5048833;28;20132;-74
2022/04/02 03:57:27;;;;;;;4.47;3.35;;;;;;;-0.01;96.73;99699.06;5048999;28;20507;-74
2022/04/02 03:59:53;;;;;;;6.88;4.20;;;;;;;-0.03;96.72;99694.91;5028861;28;20131;-72
2022/04/02 04:02:18;;;;;;;5.10;4.00;;;;;;;-0.05;96.67;99699.38;5028468;28;20038;-72
2022/04/02 04:04:43;;;;;;;5.35;3.97;;;;;;;-0.06;96.93;99702.91;5029268;28;20026;-72
2022/04/02 04:07:09;;;;;;;5.68;3.85;;;;;;;-0.05;97.22;99713.22;5029299;28;20041;-72
2022/04/02 04:09:36;;;;;;;5.10;3.45;;;;;;;-0.05;97.12;99707.16;5024844;28;20030;-72
2022/04/02 04:12:02;;;;;;;4.55;3.55;;;;;;;-0.05;97.08;99707.16;5008439;28;20399;-72
2022/04/02 04:14:28;;;;;;;5.90;3.83;;;;;;;-0.09;97.08;99708.31;5009683;28;20064;-72
2022/04/02 04:16:54;;;;;;;4.78;3.30;;;;;;;-0.08;97.13;99708.19;5029166;28;20447;-72
2022/04/02 04:19:20;;;;;;;3.97;3.00;;;;;;;-0.10;97.10;99715.25;5043936;28;20029;-72
2022/04/02 04:21:46;;;;;;;4.70;3.42;;;;;;;-0.10;97.01;99709.25;5049004;28;20414;-72
2022/04/02 04:24:12;;;;;;;3.90;3.05;;;;;;;-0.08;97.13;99721.19;5048616;28;20542;-72
2022/04/02 04:26:38;;;;;;;4.00;3.20;;;;;;;-0.09;96.79;99723.91;5052614;28;20103;-72
2022/04/02 04:29:04;;;;;;;4.63;3.00;;;;;;;-0.15;97.00;99732.09;5052064;28;20033;-72
2022/04/02 04:31:29;;;;;;;3.80;2.80;;;;;;;-0.12;96.86;99732.75;5052056;28;20516;-72
2022/04/02 04:33:55;;;;;;;4.65;3.40;;;;;;;-0.17;96.97;99729.59;5050953;28;20474;-72
2022/04/02 04:36:22;;;;;;;3.85;3.10;;;;;;;-0.17;96.92;99741.78;5052094;28;20406;-74
2022/04/02 04:38:48;;;;;;;4.10;3.22;;;;;;;-0.14;97.11;99736.34;5039033;28;20132;-74
2022/04/02 04:41:14;;;;;;;4.25;3.00;;;;;;;-0.11;96.93;99736.19;5042668;28;20033;-74
2022/04/02 04:43:41;;;;;;;4.68;3.38;;;;;;;-0.13;96.83;99740.63;5051954;28;20037;-74
2022/04/02 04:46:07;;;;;;;5.18;3.50;;;;;;;-0.15;96.65;99743.34;5045802;28;20021;-74
2022/04/02 04:48:33;;;;;;;5.63;3.20;;;;;;;-0.14;96.66;99741.56;5040083;28;20399;-74
2022/04/02 04:50:58;;;;;;;8.45;4.68;;;;;;;-0.13;96.39;99744.06;5052103;28;20040;-74
2022/04/02 04:53:23;;;;;;;5.40;3.70;;;;;;;-0.11;96.47;99752.59;5052205;28;20232;-74
2022/04/02 04:55:49;;;;;;;4.93;3.22;;;;;;;-0.07;96.29;99745.41;5038763;28;20088;-75
2022/04/02 04:58:14;;;;;;;4.15;3.15;;;;;;;-0.11;96.25;99749.16;5045837;28;20025;-74
2022/04/02 05:00:43;;;;;;;4.45;3.30;;;;;;;-0.09;96.01;99758.53;5051677;28;20402;-75
2022/04/02 05:03:11;;;;;;;5.75;3.47;;;;;;;-0.13;95.88;99757.06;5051924;28;20513;-75
2022/04/02 05:05:38;;;;;;;4.22;3.30;;;;;;;-0.12;95.73;99756.13;5050566;28;20025;-73
2022/04/02 05:08:05;;;;;;;5.93;4.03;;;;;;;-0.17;95.96;99765.16;5051449;28;20405;-74
2022/04/02 05:10:30;;;;;;;5.88;3.17;;;;;;;-0.17;95.83;99773.78;5042832;28;20033;-73
2022/04/02 05:12:56;;;;;;;4.03;3.20;;;;;;;-0.15;95.96;99768.50;5034978;28;20030;-75
2022/04/02 05:15:21;;;;;;;4.68;3.33;;;;;;;-0.18;95.39;99771.31;5049116;28;20041;-75
2022/04/02 05:17:46;;;;;;;4.03;3.42;;;;;;;-0.16;95.32;99778.06;5049811;28;20033;-74
2022/04/02 05:20:14;;;;;;;3.85;3.10;;;;;;;-0.18;95.31;99779.91;5051240;28;20102;-73
2022/04/02 05:22:44;;;;;;;3.90;3.10;;;;;;;-0.18;95.05;99784.28;5049938;28;20032;-72
2022/04/02 05:25:10;;;;;;;5.15;3.88;;;;;;;-0.20;95.21;99783.56;5050076;28;20057;-72
2022/04/02 05:27:36;;;;;;;5.57;3.75;;;;;;;-0.24;95.44;99790.69;5037536;28;20516;-72
2022/04/02 05:30:02;;;;;;;5.10;3.60;;;;;;;-0.20;95.38;99794.78;5031103;28;20037;-72
2022/04/02 05:32:28;;;;;;;6.80;4.60;;;;;;;-0.23;95.81;99788.00;5046146;28;20037;-72
2022/04/02 05:34:54;;;;;;;7.07;4.15;;;;;;;-0.20;95.60;99789.56;5031884;28;20030;-72
2022/04/02 05:37:19;;;;;;;4.82;3.25;;;;;;;-0.20;95.38;99796.53;5031011;28;20038;-72
2022/04/02 05:39:45;;;;;;;5.32;3.85;;;;;;;-0.19;94.92;99804.25;5030441;28;20033;-72
2022/04/02 05:42:12;;;;;;;6.50;4.28;;;;;;;-0.19;95.20;99817.25;5030704;28;20410;-72
2022/04/02 05:44:38;;;;;;;5.63;4.03;;;;;;;-0.18;95.21;99813.69;5045217;28;20163;-72
2022/04/02 05:47:04;;;;;;;7.22;3.90;;;;;;;-0.27;95.09;99807.31;5040494;28;20033;-72
2022/04/02 05:49:29;;;;;;;5.97;3.90;;;;;;;-0.29;94.63;99809.19;5033197;28;20041;-72
2022/04/02 05:51:55;;;;;;;6.70;3.72;;;;;;;-0.24;94.60;99817.53;5033872;28;20481;-72
2022/04/02 05:54:20;;;;;;;5.55;4.28;;;;;;;-0.15;94.77;99826.47;5030717;28;20030;-72
2022/04/02 05:56:45;;;;;;;7.10;4.10;;;;;;;-0.11;94.62;99827.13;5031654;28;20038;-72
2022/04/02 05:59:11;;;;;;;7.53;3.90;;;;;;;-0.15;94.63;99831.69;5044935;28;20044;-72
2022/04/02 06:01:36;;;;;;;5.47;3.58;;;;;;;-0.10;94.58;99837.41;5050694;28;20245;-75
2022/04/02 06:04:03;;;;;;;5.00;3.35;;;;;;;-0.06;94.27;99838.03;5050323;28;20208;-73
2022/04/02 06:06:29;;;;;;;5.57;3.80;;;;;;;-0.04;93.84;99842.22;5050978;28;20033;-73
2022/04/02 06:08:54;;;;;;;5.00;3.20;;;;;;;-0.06;94.17;99846.66;5050386;28;20564;-73
2022/04/02 06:11:20;;;;;;;4.47;3.20;;;;;;;0.04;94.02;99848.66;5050448;28;20079;-73
2022/04/02 06:13:46;;;;;;;4.70;3.30;;;;;;;0.04;93.69;99848.66;5050322;28;20045;-73
2022/04/02 06:16:11;;;;;;;5.47;3.17;;;;;;;0.04;92.99;99852.09;5049620;28;20029;-71
2022/04/02 06:18:36;;;;;;;4.20;3.03;;;;;;;0.13;93.18;99861.06;5046701;28;20091;-71
2022/04/02 06:21:03;;;;;;;5.15;3.05;;;;;;;0.13;93.07;99861.88;5048880;28;20033;-71
2022/04/02 06:23:29;;;;;;;7.00;4.20;;;;;;;0.16;92.98;99868.66;5050368;28;20037;-71
2022/04/02 06:25:54;;;;;;;5.40;4.30;;;;;;;0.13;92.85;99871.47;5048839;28;20030;-72
2022/04/02 06:28:20;;;;;;;3.78;3.03;;;;;;;0.07;92.24;99864.91;5048269;28;20037;-71
2022/04/02 06:30:45;;;;;;;5.20;3.35;;;;;;;0.04;91.97;99872.06;5050375;28;20174;-71
2022/04/02 06:33:11;;;;;;;4.25;2.95;;;;;;;0.13;92.22;99877.47;5049118;28;20548;-73
2022/04/02 06:35:36;;;;;;;7.15;3.70;;;;;;;0.08;91.99;99879.56;5050181;28;20535;-71
2022/04/02 06:38:01;;;;;;;4.55;3.20;;;;;;;0.11;91.92;99881.13;5048799;28;20505;-71
2022/04/02 06:40:27;;;;;;;4.30;3.13;;;;;;;0.17;92.07;99886.75;5049071;28;20033;-73
2022/04/02 06:42:52;;;;;;;7.43;4.30;;;;;;;0.22;92.26;99889.06;5049913;28;20057;-72
2022/04/02 06:45:18;;;;;;;7.05;3.63;;;;;;;0.15;91.22;99891.22;5048796;28;20321;-73
2022/04/02 06:47:44;;;;;;;5.20;3.10;;;;;;;0.22;91.40;99898.63;5047623;28;20164;-73
2022/04/02 06:50:13;;;;;;;5.95;3.85;;;;;;;0.29;91.31;99899.88;5029319;28;20481;-71
2022/04/02 06:52:39;;;;;;;6.30;4.03;;;;;;;0.22;91.15;99898.63;5028660;28;20053;-72
2022/04/02 06:55:06;;;;;;;5.53;3.92;;;;;;;0.15;90.32;99906.00;5029912;28;20288;-71
2022/04/02 06:57:39;;;;;;;5.88;3.90;;;;;;;0.13;90.00;99903.47;5030268;28;20034;-71
2022/04/02 07:00:05;;;;;;;;;;;;;;;0.16;90.24;99902.44;5049271;28;20033;-72
2022/04/02 07:02:30;;;;;;;12.20;6.15;;;;;;;0.29;90.46;99912.88;5028728;28;19913;-71
2022/04/02 07:04:55;;;;;;;13.45;8.02;;;;;;;0.37;89.98;99910.59;5029735;28;20433;-71
2022/04/02 07:07:21;;;;;;;10.10;6.30;;;;;;;0.47;90.13;99911.66;5029656;28;20029;-71
2022/04/02 07:09:46;;;;;;;7.72;4.90;;;;;;;0.48;89.83;99918.53;5029284;28;20114;-71
2022/04/02 07:12:12;;;;;;;7.40;4.15;;;;;;;0.48;89.51;99918.53;5029176;28;20045;-74
2022/04/02 07:14:37;;;;;;;6.15;4.18;;;;;;;0.61;89.63;99929.75;5029463;28;20070;-73
2022/04/02 07:17:03;;;;;;;5.45;4.10;;;;;;;0.56;88.79;99928.41;5029209;28;20426;-73
2022/04/02 07:19:30;;;;;;;5.90;3.97;;;;;;;0.62;89.16;99930.59;5030027;28;20041;-73
2022/04/02 07:21:55;;;;;;;5.40;3.78;;;;;;;0.74;88.69;99934.13;5028145;28;20297;-75
2022/04/02 07:24:21;;;;;;;6.03;4.00;;;;;;;0.85;87.69;99936.84;5029244;28;20045;-74
2022/04/02 07:26:48;;;;;;;5.38;3.65;;;;;;;0.89;87.32;99932.28;5029411;28;20065;-74
2022/04/02 07:29:15;;;;;;;6.35;4.30;;;;;;;0.88;86.88;99946.22;5044318;28;20033;-75
2022/04/02 07:31:44;;;;;;;7.18;3.83;;;;;;;0.88;86.75;99952.25;5027937;28;20030;-74
2022/04/02 07:34:10;;;;;;;6.18;4.40;;;;;;;0.87;86.43;99948.00;5027535;28;20026;-73
2022/04/02 07:36:41;;;;;;;6.57;4.13;;;;;;;1.07;86.18;99954.44;5029262;28;20086;-73
2022/04/02 07:39:23;;;;;;;7.43;4.10;;;;;;;1.14;85.66;99960.06;5029240;28;20033;-73
2022/04/02 07:42:11;;;;;;;5.53;3.75;;;;;;;1.15;85.39;99964.34;5029496;28;20037;-73
2022/04/02 07:45:04;;;;;;;6.43;4.18;;;;;;;1.14;84.28;99963.50;5029332;28;20033;-73
2022/04/02 07:47:32;;;;;;;5.35;3.47;;;;;;;1.23;84.41;99977.66;5029209;28;20038;-73
2022/04/02 07:50:04;;;;;;;6.72;3.40;;;;;;;1.27;83.66;99979.13;5028839;28;20481;-73
2022/04/02 07:52:30;;;;;;;6.80;3.70;;;;;;;1.28;83.13;99976.41;5023888;28;20040;-74
2022/04/02 07:54:57;;;;;;;5.70;3.53;;;;;;;1.22;81.96;99973.41;5040905;28;20120;-74
2022/04/02 07:57:44;;;;;;;7.28;3.85;;;;;;;1.19;81.81;99981.41;5049573;28;20132;-73
2022/04/02 08:00:12;;;;;;;4.30;3.25;;;;;;;1.31;82.43;99983.19;5011274;28;20030;-73
2022/04/02 08:02:42;;;;;;;5.63;3.60;;;;;;;1.52;82.90;99982.63;5013309;28;20044;-73
2022/04/02 08:05:15;;;;;;;5.70;4.07;;;;;;;1.76;82.91;99980.88;5013340;28;20026;-73
2022/04/02 08:07:49;;;;;;;5.30;3.63;;;;;;;1.67;80.58;99989.38;5012915;28;20112;-73
2022/04/02 08:10:16;;;;;;;5.93;3.50;;;;;;;1.62;80.44;99994.06;5012664;28;20034;-73
2022/04/02 08:12:41;;;;;;;4.78;3.40;;;;;;;1.73;80.78;99988.94;5011513;28;20042;-73
2022/04/02 08:15:10;;;;;;;5.35;3.63;;;;;;;1.80;80.30;100002.38;5011638;28;20034;-74
2022/04/02 08:17:39;;;;;;;4.32;3.45;;;;;;;1.79;80.33;100004.16;5019892;28;20055;-73
2022/04/02 08:20:06;;;;;;;5.88;3.70;;;;;;;1.71;78.95;100009.06;5031915;28;20067;-73
2022/04/02 08:22:31;;;;;;;4.25;2.92;;;;;;;1.91;79.78;100002.44;5032796;28;20491;-73
2022/04/02 08:24:58;;;;;;;5.03;3.72;;;;;;;1.95;79.49;99998.66;5032402;28;20059;-73
2022/04/02 08:27:54;;;;;;;5.60;3.40;;;;;;;2.03;77.39;100011.19;5032445;28;20049;-74
2022/04/02 08:30:44;;;;;;;4.65;3.25;;;;;;;1.96;77.70;100017.78;5032390;28;20029;-73
2022/04/02 08:33:42;;;;;;;7.22;3.92;;;;;;;2.02;78.51;100010.31;5014104;28;20041;-73
2022/04/02 08:36:53;;;;;;;4.70;3.50;;;;;;;2.04;78.53;100021.47;5030764;28;20040;-73
2022/04/02 08:39:30;;;;;;;5.07;3.40;;;;;;;2.05;78.56;100024.91;4951422;28;20093;-74
2022/04/02 08:42:30;;;;;;;4.72;3.25;;;;;;;2.06;78.57;100043.06;4950932;28;20563;-73
2022/04/02 08:45:03;;;;;;;6.57;3.78;;;;;;;1.88;78.89;100040.00;5019492;28;20099;-74
2022/04/02 08:47:28;;;;;;;6.15;3.70;;;;;;;1.81;78.16;100040.53;5052688;28;20037;-73
2022/04/02 08:50:06;;;;;;;4.93;3.40;;;;;;;1.70;78.93;100043.91;5051768;28;20040;-73
2022/04/02 08:52:52;;;;;;;6.55;3.58;;;;;;;1.90;79.27;100045.09;5042520;28;20060;-73
2022/04/02 08:55:21;;;;;;;5.88;3.83;;;;;;;1.86;79.57;100047.09;5048963;28;20497;-74
2022/04/02 08:57:52;;;;;;;6.72;3.55;;;;;;;1.78;79.81;100052.00;5057492;28;20095;-73
2022/04/02 09:00:23;;;;;;;;;;;;;;;1.85;79.82;100058.44;5052166;28;20140;-73
2022/04/02 09:02:54;;;;;;;5.45;3.30;;;;;;;1.96;79.75;100064.72;5052162;28;19920;-72
2022/04/02 09:05:25;;;;;;;5.22;3.63;;;;;;;2.10;80.04;100067.16;5050687;28;20389;-72
2022/04/02 09:08:29;;;;;;;5.57;3.83;;;;;;;2.26;79.32;100072.94;5050719;28;20037;-72
2022/04/02 09:11:13;;;;;;;5.10;3.38;;;;;;;2.25;79.24;100078.28;5050683;28;20039;-72
2022/04/02 09:14:08;;;;;;;4.78;3.90;;;;;;;2.14;79.34;100086.84;5052117;28;20604;-73
2022/04/02 09:17:11;;;;;;;4.68;3.60;;;;;;;2.39;79.48;100085.13;5051797;28;20577;-72
2022/04/02 09:20:02;;;;;;;6.95;4.28;;;;;;;2.44;79.28;100086.44;5049973;28;20033;-75
2022/04/02 09:22:46;;;;;;;;;;;;;;;2.46;78.37;100089.78;5051807;28;20116;-74
2022/04/02 09:25:23;;;;;;;5.22;4.00;;;;;;;2.48;78.96;100097.50;5051565;28;19971;-72
2022/04/02 09:28:25;;;;;;;5.65;3.80;;;;;;;2.35;78.33;100092.31;5050083;28;20051;-72
2022/04/02 09:31:00;;;;;;;6.05;3.90;;;;;;;2.25;79.04;100096.53;5051543;28;20033;-72
2022/04/02 09:33:53;;;;;;;5.45;3.50;;;;;;;2.09;80.10;100096.78;5051381;28;20040;-72
2022/04/02 09:36:30;;;;;;;7.85;3.80;;;;;;;1.94;80.97;100108.31;5050932;28;20315;-72
2022/04/02 09:39:03;;;;;;;5.63;3.78;;;;;;;2.16;80.92;100110.22;5049603;28;20037;-72
2022/04/02 09:41:45;;;;;;;4.93;3.28;;;;;;;2.41;79.52;100107.56;5051064;28;20163;-72
2022/04/02 09:45:02;;;;;;;5.68;3.90;;;;;;;2.50;79.26;100114.72;5050722;28;20041;-72
2022/04/02 09:47:49;;;;;;;4.63;3.67;;;;;;;2.55;79.12;100111.75;5050948;28;20123;-72
2022/04/02 09:50:17;;;;;;;5.72;3.70;;;;;;;2.69;79.18;100116.84;5050710;28;20120;-72
2022/04/02 09:52:49;;;;;;;7.78;4.28;;;;;;;2.52;77.09;100125.03;5044491;28;20309;-72
2022/04/02 09:55:16;;;;;;;4.78;3.45;;;;;;;2.60;78.29;100116.66;5030828;28;20042;-72
2022/04/02 09:57:44;;;;;;;7.68;3.80;;;;;;;2.68;78.41;100125.59;5032950;28;20030;-72
2022/04/02 10:00:10;;;;;;;7.95;4.05;;;;;;;2.73;77.40;100120.88;5048976;28;20052;-72
2022/04/02 10:03:00;;;;;;;6.05;3.45;;;;;;;3.13;78.21;100120.56;5050736;28;20028;-72
2022/04/02 10:05:54;;;;;;;5.75;3.70;;;;;;;3.40;78.12;100127.28;5050904;28;20029;-72
2022/04/02 10:08:29;;;;;;;5.93;3.70;;;;;;;3.31;76.12;100120.13;5048672;28;20036;-74
2022/04/02 10:10:56;;;;;;;5.53;3.70;;;;;;;3.46;76.35;100131.25;5049274;28;20033;-72
2022/04/02 10:13:22;;;;;;;8.63;3.92;;;;;;;3.54;75.55;100137.53;5048948;28;20115;-72
2022/04/02 10:15:51;;;;;;;5.28;3.60;;;;;;;3.85;75.17;100129.97;5049034;28;20493;-72
2022/04/02 10:18:20;;;;;;;5.55;3.83;;;;;;;3.69;71.57;100139.94;5047416;28;20029;-72
2022/04/02 10:20:48;;;;;;;6.15;3.65;;;;;;;3.61;70.91;100125.66;5048608;28;20033;-72
2022/04/02 10:23:30;;;;;;;6.85;3.60;;;;;;;3.77;70.53;100134.97;5050118;28;20108;-72
2022/04/02 10:26:14;;;;;;;5.43;3.55;;;;;;;3.60;70.33;100137.09;5048947;28;20116;-72
2022/04/02 10:28:51;;;;;;;6.13;4.05;;;;;;;3.64;69.57;100129.00;5050271;28;20041;-74
2022/04/02 10:31:37;;;;;;;6.07;3.70;;;;;;;3.64;69.03;100121.16;5050172;28;20548;-72
2022/04/02 10:34:09;;;;;;;7.18;4.25;;;;;;;3.66;68.80;100142.78;5049908;28;20497;-72
2022/04/02 10:36:39;;;;;;;4.85;3.80;;;;;;;3.66;69.37;100140.16;5065228;28;20064;-72
2022/04/02 10:39:07;;;;;;;10.02;4.18;;;;;;;3.57;67.82;100136.47;5058069;28;20028;-72
2022/04/02 10:41:37;;;;;;;6.15;3.85;;;;;;;3.55;67.11;100144.44;5057467;28;20079;-72
2022/04/02 10:44:35;;;;;;;4.97;3.88;;;;;;;3.59;66.96;100134.56;5065734;28;20032;-72
2022/04/02 10:47:03;;;;;;;6.07;4.32;;;;;;;3.53;66.65;100145.50;5057726;28;20532;-72
2022/04/02 10:49:33;;;;;;;5.03;3.80;;;;;;;3.67;67.27;100149.66;5057979;28;20056;-72
2022/04/02 10:52:01;;;;;;;6.03;3.97;;;;;;;3.83;65.60;100158.84;5047522;28;20413;-72
2022/04/02 10:54:29;;;;;;;7.25;4.57;;;;;;;3.79;65.20;100151.34;5066700;28;20118;-72
2022/04/02 10:56:56;;;;;;;4.68;3.75;;;;;;;3.73;65.52;100154.44;5037523;28;20517;-72
2022/04/02 10:59:22;;;;;;;7.40;4.65;;;;;;;3.91;67.15;100158.28;5055343;28;20123;-72
2022/04/02 11:01:53;;;;;;;6.00;4.50;;;;;;;4.10;66.51;100162.91;5048576;28;20515;-72
2022/04/02 11:04:39;;;;;;;6.55;4.63;;;;;;;4.08;65.22;100162.19;5048009;28;20044;-72
2022/04/02 11:07:06;;;;;;;7.43;4.60;;;;;;;3.83;66.16;100164.06;5049988;28;20033;-72
2022/04/02 11:09:34;;;;;;;6.85;4.85;;;;;;;3.93;66.46;100169.47;5049134;28;20180;-72
2022/04/02 11:12:13;;;;;;;6.60;4.38;;;;;;;4.01;66.54;100163.63;5049978;28;20067;-72
2022/04/02 11:14:51;;;;;;;7.88;4.60;;;;;;;4.15;66.36;100173.03;5049850;28;20112;-72
2022/04/02 11:17:32;;;;;;;7.18;4.32;;;;;;;4.15;66.61;100170.41;5048104;28;20470;-72
2022/04/02 11:20:09;;;;;;;8.00;4.38;;;;;;;4.16;66.56;100167.66;5009709;28;20026;-72
2022/04/02 11:23:02;;;;;;;5.85;4.10;;;;;;;4.26;66.07;100173.81;5009526;28;20045;-73
2022/04/02 11:25:31;;;;;;;7.18;4.05;;;;;;;4.35;66.75;100176.69;5009779;28;20542;-72
2022/04/02 11:28:08;;;;;;;6.07;4.50;;;;;;;4.29;65.43;100172.78;5008218;28;20542;-72
2022/04/02 11:30:35;;;;;;;4.95;4.05;;;;;;;4.31;65.66;100176.09;5008080;28;20034;-72
2022/04/02 11:33:07;;;;;;;7.05;4.90;;;;;;;4.26;65.67;100167.78;5009410;28;20033;-72
2022/04/02 11:35:44;;;;;;;6.80;5.53;;;;;;;4.28;65.35;100170.28;5009732;28;20037;-72
2022/04/02 11:38:22;;;;;;;7.13;5.53;;;;;;;4.54;63.98;100176.09;5009265;28;20068;-72
2022/04/02 11:41:07;;;;;;;7.13;5.40;;;;;;;4.65;62.58;100170.84;5009618;28;20398;-72
2022/04/02 11:43:40;;;;;;;6.57;4.78;;;;;;;4.53;62.41;100179.63;5009689;28;20057;-72
2022/04/02 11:46:10;;;;;;;8.07;5.75;;;;;;;4.39;62.21;100181.56;5009360;28;20027;-72
2022/04/02 11:48:59;;;;;;;7.60;5.33;;;;;;;4.56;62.82;100180.25;5009532;28;20050;-74
2022/04/02 11:51:30;;;;;;;8.63;4.53;;;;;;;4.35;63.48;100187.16;5009645;28;20122;-74
2022/04/02 11:54:14;;;;;;;7.70;4.35;;;;;;;4.43;62.03;100190.84;5009931;28;20033;-72